Time;durP1;ratioP1;P1;durP2;ratioP2;P2;SDS_P1;SDS_P2;PMS_P1;PMS_P2;Temp;Humidity;BMP_temperature;BMP_pressure;BME280_temperature;BME280_humidity;BME280_pressure;Samples;Min_cycle;Max_cycle;Signal;HPM_P1;HPM_P2
2022/01/31 00:00:23;;;;;;;36.95;24.05;;;5.40;99.90;;;;;;4937734;29;20531;-86
2022/01/31 00:02:49;;;;;;;32.95;22.98;;;5.50;99.90;;;;;;4937587;29;20063;-87
2022/01/31 00:05:14;;;;;;;30.40;20.77;;;5.40;99.90;;;;;;4937701;29;20380;-87
2022/01/31 00:07:40;;;;;;;28.88;19.70;;;5.20;99.90;;;;;;4934976;29;20031;-86
2022/01/31 00:10:09;;;;;;;31.10;20.75;;;5.40;99.90;;;;;;4937346;29;20032;-86
2022/01/31 00:12:50;;;;;;;27.30;19.65;;;5.50;99.90;;;;;;4937960;29;20043;-86
2022/01/31 00:15:16;;;;;;;32.72;21.15;;;5.50;99.90;;;;;;4937428;29;20028;-86
2022/01/31 00:17:42;;;;;;;34.95;22.85;;;5.50;99.90;;;;;;4937985;29;20193;-86
2022/01/31 00:20:08;;;;;;;33.08;21.77;;;5.40;99.90;;;;;;4937528;29;20019;-86
2022/01/31 00:22:33;;;;;;;31.17;21.23;;;5.40;99.90;;;;;;4933612;29;20526;-86
2022/01/31 00:24:59;;;;;;;31.85;21.70;;;5.50;99.90;;;;;;4939026;29;20027;-86
2022/01/31 00:27:25;;;;;;;35.05;22.05;;;6.10;99.90;;;;;;4940562;29;20043;-87
2022/01/31 00:29:50;;;;;;;36.92;22.88;;;5.70;99.90;;;;;;4940953;29;20535;-87
2022/01/31 00:32:16;;;;;;;33.17;21.67;;;5.60;99.90;;;;;;4940847;29;20023;-86
2022/01/31 00:34:41;;;;;;;33.33;21.33;;;5.70;99.90;;;;;;4937789;29;20475;-87
2022/01/31 00:37:07;;;;;;;31.08;20.15;;;6.00;99.90;;;;;;4939256;29;20039;-86
2022/01/31 00:39:35;;;;;;;32.30;21.05;;;5.70;99.90;;;;;;4925011;29;20032;-87
2022/01/31 00:42:04;;;;;;;37.20;21.45;;;5.70;99.90;;;;;;4940015;28;20043;-86
2022/01/31 00:44:40;;;;;;;38.90;22.92;;;5.70;99.90;;;;;;4940877;29;20500;-86
2022/01/31 00:47:16;;;;;;;111.13;24.40;;;5.70;99.90;;;;;;4940586;29;20029;-87
2022/01/31 00:49:49;;;;;;;119.38;21.30;;;5.70;99.90;;;;;;4937479;29;20563;-86
2022/01/31 00:52:15;;;;;;;41.20;19.27;;;5.50;99.90;;;;;;4921505;29;20035;-87
2022/01/31 00:54:41;;;;;;;39.63;20.67;;;5.50;99.90;;;;;;4941523;29;20028;-86
2022/01/31 00:57:06;;;;;;;35.65;20.30;;;5.90;99.90;;;;;;4939911;29;20035;-86
2022/01/31 00:59:32;;;;;;;44.78;19.80;;;5.60;99.90;;;;;;4940350;29;20035;-86
2022/01/31 01:01:57;;;;;;;45.58;20.40;;;5.60;99.90;;;;;;4923749;29;20035;-86
2022/01/31 01:04:23;;;;;;;122.85;21.02;;;5.60;99.90;;;;;;4935840;29;20047;-87
2022/01/31 01:06:49;;;;;;;45.85;19.05;;;5.90;99.90;;;;;;4923726;29;20019;-86
2022/01/31 01:09:15;;;;;;;50.95;20.42;;;5.50;99.90;;;;;;4940085;29;20087;-87
2022/01/31 01:11:40;;;;;;;52.90;21.15;;;5.60;99.90;;;;;;4940154;29;20024;-86
2022/01/31 01:14:06;;;;;;;80.15;22.90;;;5.50;99.90;;;;;;4939939;29;20042;-86
2022/01/31 01:16:32;;;;;;;42.33;21.05;;;5.80;99.90;;;;;;4935840;29;20030;-86
2022/01/31 01:18:58;;;;;;;39.70;21.13;;;5.60;99.90;;;;;;4940638;29;20366;-86
2022/01/31 01:21:23;;;;;;;34.15;20.60;;;5.50;99.90;;;;;;4940530;29;20031;-86
2022/01/31 01:23:49;;;;;;;34.15;20.50;;;5.80;99.90;;;;;;4939993;29;20067;-86
2022/01/31 01:26:15;;;;;;;53.97;22.48;;;5.60;99.90;;;;;;4923598;29;20388;-86
2022/01/31 01:28:40;;;;;;;34.45;20.63;;;5.60;99.90;;;;;;4936339;29;20031;-86
2022/01/31 01:31:06;;;;;;;43.97;20.13;;;5.60;99.90;;;;;;4938035;28;20504;-86
2022/01/31 01:33:38;;;;;;;36.65;20.98;;;5.80;99.90;;;;;;4939988;29;20514;-86
2022/01/31 01:36:04;;;;;;;47.13;20.48;;;5.80;99.90;;;;;;4940241;29;20028;-87
2022/01/31 01:38:30;;;;;;;56.22;21.38;;;5.60;99.90;;;;;;4939487;29;20504;-86
2022/01/31 01:40:59;;;;;;;44.22;21.33;;;5.60;99.90;;;;;;4938028;29;20038;-86
2022/01/31 01:43:25;;;;;;;157.35;25.52;;;5.50;99.90;;;;;;4936180;29;20492;-86
2022/01/31 01:45:53;;;;;;;49.75;22.88;;;5.50;99.90;;;;;;4923066;29;20076;-86
2022/01/31 01:48:19;;;;;;;45.78;23.00;;;5.50;99.90;;;;;;4923544;29;20036;-86
2022/01/31 01:50:46;;;;;;;43.92;22.10;;;5.60;99.90;;;;;;4938933;29;20102;-87
2022/01/31 01:53:12;;;;;;;39.17;21.63;;;6.00;99.90;;;;;;4939251;29;20027;-86
2022/01/31 01:55:38;;;;;;;36.20;22.63;;;5.60;99.90;;;;;;4935395;29;20926;-86
2022/01/31 01:58:05;;;;;;;34.80;21.58;;;5.60;99.90;;;;;;4938907;29;20063;-86
2022/01/31 02:00:49;;;;;;;33.33;20.48;;;5.70;99.90;;;;;;4941060;29;20512;-87
2022/01/31 02:03:15;;;;;;;30.17;20.23;;;5.60;99.90;;;;;;4938976;29;20035;-86
2022/01/31 02:05:41;;;;;;;36.67;20.83;;;5.70;99.90;;;;;;4938998;29;20036;-86
2022/01/31 02:08:07;;;;;;;42.97;22.33;;;5.70;99.90;;;;;;4939021;29;20074;-86
2022/01/31 02:10:32;;;;;;;35.78;20.52;;;5.40;99.90;;;;;;4934987;29;20030;-86
2022/01/31 02:13:06;;;;;;;44.03;22.33;;;5.50;99.90;;;;;;4955405;29;20119;-86
2022/01/31 02:15:32;;;;;;;40.75;22.05;;;5.60;99.90;;;;;;4923010;29;20028;-86
2022/01/31 02:17:58;;;;;;;35.10;20.95;;;5.70;99.90;;;;;;4938966;29;20582;-86
2022/01/31 02:20:24;;;;;;;38.78;21.75;;;5.90;99.90;;;;;;4938990;29;20020;-86
2022/01/31 02:22:50;;;;;;;36.95;22.08;;;5.60;99.90;;;;;;4920819;29;20400;-86
2022/01/31 02:25:16;;;;;;;40.03;22.67;;;5.60;99.90;;;;;;4937072;29;20094;-86
2022/01/31 02:27:43;;;;;;;41.03;23.27;;;5.60;99.90;;;;;;4938860;29;20032;-86
2022/01/31 02:30:12;;;;;;;46.88;23.67;;;5.80;99.90;;;;;;4938702;29;20066;-86
2022/01/31 02:32:38;;;;;;;41.75;23.67;;;5.60;99.90;;;;;;4923047;29;20036;-86
2022/01/31 02:35:05;;;;;;;39.30;23.58;;;5.80;99.90;;;;;;4938489;29;20525;-86
2022/01/31 02:37:31;;;;;;;39.10;22.65;;;5.60;99.90;;;;;;4917842;29;20491;-86
2022/01/31 02:39:57;;;;;;;36.75;22.02;;;5.60;99.90;;;;;;4938898;29;20111;-86
2022/01/31 02:42:23;;;;;;;38.47;21.77;;;5.50;99.90;;;;;;4919821;29;20135;-86
2022/01/31 02:44:49;;;;;;;34.05;19.90;;;5.80;99.90;;;;;;4919481;29;20497;-86
2022/01/31 02:47:21;;;;;;;34.90;21.52;;;5.50;99.90;;;;;;4919400;29;20087;-86
2022/01/31 02:50:00;;;;;;;36.85;21.08;;;5.60;99.90;;;;;;4916991;29;20020;-86
2022/01/31 02:52:30;;;;;;;36.83;21.70;;;5.60;99.90;;;;;;4915810;29;20060;-86
2022/01/31 02:54:55;;;;;;;34.30;20.80;;;5.50;99.90;;;;;;4920261;29;20028;-86
2022/01/31 02:57:21;;;;;;;33.17;21.17;;;5.10;99.90;;;;;;4919734;29;20066;-86
2022/01/31 02:59:47;;;;;;;32.97;21.25;;;5.60;99.90;;;;;;4919191;29;20477;-86
2022/01/31 03:02:14;;;;;;;31.05;19.95;;;5.40;99.90;;;;;;4918908;29;20035;-86
2022/01/31 03:04:40;;;;;;;34.67;20.98;;;5.40;99.90;;;;;;4930477;29;20036;-86
2022/01/31 03:07:05;;;;;;;37.33;20.98;;;5.30;99.90;;;;;;4918577;29;20024;-87
2022/01/31 03:09:31;;;;;;;37.17;21.92;;;5.70;99.90;;;;;;4918335;29;20032;-86
2022/01/31 03:11:56;;;;;;;34.80;20.67;;;5.50;99.90;;;;;;4919429;29;20028;-86
2022/01/31 03:14:22;;;;;;;36.05;22.02;;;5.30;99.90;;;;;;4919407;29;20079;-86
2022/01/31 03:16:48;;;;;;;34.25;20.83;;;5.60;99.90;;;;;;4916398;29;20028;-87
2022/01/31 03:19:16;;;;;;;37.97;21.00;;;5.50;99.90;;;;;;4916501;29;20103;-87
2022/01/31 03:21:42;;;;;;;35.55;20.75;;;5.90;99.90;;;;;;4919332;29;20024;-86
2022/01/31 03:24:09;;;;;;;35.25;20.67;;;5.60;99.90;;;;;;4927013;29;20032;-87
2022/01/31 03:26:36;;;;;;;37.63;20.30;;;5.60;99.90;;;;;;4926616;29;20416;-86
2022/01/31 03:29:02;;;;;;;37.45;21.10;;;5.60;99.90;;;;;;4929292;29;20027;-84
2022/01/31 03:31:27;;;;;;;32.42;19.02;;;5.60;99.90;;;;;;4916306;29;20040;-86
2022/01/31 03:33:54;;;;;;;37.55;20.63;;;5.60;99.90;;;;;;4928614;29;20036;-86
2022/01/31 03:36:20;;;;;;;32.38;19.15;;;5.70;99.90;;;;;;4920668;29;20401;-85
2022/01/31 03:38:47;;;;;;;35.88;20.52;;;5.40;99.90;;;;;;4919019;29;20128;-86
2022/01/31 03:41:14;;;;;;;34.55;19.33;;;5.50;99.90;;;;;;4920827;28;20032;-86
2022/01/31 03:43:40;;;;;;;33.88;19.27;;;5.50;99.90;;;;;;4918633;29;20047;-85
2022/01/31 03:46:06;;;;;;;28.13;18.35;;;5.50;99.90;;;;;;4938206;29;20535;-86
2022/01/31 03:48:33;;;;;;;31.45;17.98;;;5.90;99.90;;;;;;4938354;29;20066;-86
2022/01/31 03:51:00;;;;;;;31.23;18.73;;;5.60;99.90;;;;;;4930528;29;20042;-86
2022/01/31 03:53:26;;;;;;;29.77;18.45;;;5.70;99.90;;;;;;4945597;29;20133;-86
2022/01/31 03:55:52;;;;;;;35.97;19.00;;;5.60;99.90;;;;;;4948600;29;20139;-86
2022/01/31 03:58:18;;;;;;;29.08;18.45;;;5.60;99.90;;;;;;4951437;29;20159;-86
2022/01/31 04:00:44;;;;;;;28.50;17.73;;;5.50;99.90;;;;;;4925999;29;20503;-86
2022/01/31 04:03:10;;;;;;;28.42;17.55;;;5.50;99.90;;;;;;4941695;29;20031;-86
2022/01/31 04:05:38;;;;;;;28.83;17.95;;;5.20;99.90;;;;;;4941005;29;20082;-86
2022/01/31 04:08:05;;;;;;;28.45;18.13;;;5.30;99.90;;;;;;4941758;29;20027;-86
2022/01/31 04:10:31;;;;;;;27.33;17.15;;;5.30;99.90;;;;;;4920996;29;20735;-86
2022/01/31 04:12:57;;;;;;;29.45;17.42;;;5.40;99.90;;;;;;4942435;29;20090;-86
2022/01/31 04:15:22;;;;;;;25.98;16.75;;;5.30;99.90;;;;;;4941598;29;20503;-86
2022/01/31 04:17:48;;;;;;;27.30;17.02;;;5.70;99.90;;;;;;4941251;29;20404;-86
2022/01/31 04:20:15;;;;;;;24.73;16.45;;;5.30;99.90;;;;;;4941329;29;20093;-86
2022/01/31 04:22:49;;;;;;;29.00;16.58;;;5.20;99.90;;;;;;4938044;29;20062;-86
2022/01/31 04:25:29;;;;;;;26.23;16.27;;;5.50;99.90;;;;;;4939811;29;20027;-87
2022/01/31 04:28:02;;;;;;;27.77;16.45;;;5.70;99.90;;;;;;4925418;29;20043;-86
2022/01/31 04:30:36;;;;;;;27.58;16.95;;;5.80;99.90;;;;;;4941590;29;20379;-86
2022/01/31 04:33:02;;;;;;;25.17;16.85;;;5.40;99.90;;;;;;4941225;29;20059;-86
2022/01/31 04:35:27;;;;;;;26.35;16.30;;;5.40;99.90;;;;;;4940581;29;20492;-86
2022/01/31 04:37:53;;;;;;;26.73;16.90;;;5.30;99.90;;;;;;4923386;29;20047;-86
2022/01/31 04:40:19;;;;;;;28.33;16.52;;;5.50;99.90;;;;;;4938682;29;20022;-86
2022/01/31 04:42:45;;;;;;;28.15;16.10;;;5.30;99.90;;;;;;4939390;28;20067;-86
2022/01/31 04:45:12;;;;;;;28.73;16.80;;;5.40;99.90;;;;;;4941236;29;20597;-86
2022/01/31 04:47:38;;;;;;;25.08;15.50;;;5.30;99.90;;;;;;4929377;29;20395;-86
2022/01/31 04:50:05;;;;;;;24.92;15.57;;;5.70;99.90;;;;;;4951829;29;20071;-86
2022/01/31 04:52:31;;;;;;;26.38;16.33;;;5.30;99.90;;;;;;4936744;29;20101;-86
2022/01/31 04:54:57;;;;;;;23.95;15.43;;;5.40;99.90;;;;;;4940601;29;20032;-86
2022/01/31 04:57:22;;;;;;;24.73;15.20;;;5.40;99.90;;;;;;4940545;29;20079;-86
2022/01/31 04:59:49;;;;;;;28.98;15.85;;;5.60;99.90;;;;;;4940504;29;20035;-85
2022/01/31 05:02:15;;;;;;;27.90;15.50;;;6.00;99.90;;;;;;4924810;29;20119;-87
2022/01/31 05:04:40;;;;;;;26.88;15.27;;;5.90;99.90;;;;;;4937510;29;20107;-92
2022/01/31 05:07:06;;;;;;;22.40;14.95;;;5.50;99.90;;;;;;4925107;29;20079;-94
2022/01/31 05:09:32;;;;;;;26.52;14.90;;;6.00;99.90;;;;;;4929182;29;20024;-92
2022/01/31 05:11:57;;;;;;;22.90;14.18;;;5.60;99.90;;;;;;4942008;29;20031;-93
2022/01/31 05:14:23;;;;;;;23.02;14.77;;;5.60;99.90;;;;;;4942051;29;20031;-90
2022/01/31 05:16:49;;;;;;;25.10;15.23;;;5.50;99.90;;;;;;4939840;29;20054;-93
2022/01/31 05:19:14;;;;;;;26.38;15.15;;;5.20;99.90;;;;;;4940047;29;20027;-93
2022/01/31 05:21:40;;;;;;;26.55;16.27;;;5.50;99.90;;;;;;4926083;29;20028;-91
2022/01/31 05:24:07;;;;;;;26.40;15.55;;;5.30;99.90;;;;;;4926376;29;20035;-88
2022/01/31 05:26:33;;;;;;;23.88;14.98;;;5.40;99.90;;;;;;4940497;29;20024;-85
2022/01/31 05:28:59;;;;;;;25.20;16.38;;;5.50;99.90;;;;;;4938843;29;20513;-86
2022/01/31 05:31:25;;;;;;;24.33;14.60;;;5.60;99.90;;;;;;4936110;29;20043;-85
2022/01/31 05:33:50;;;;;;;25.08;15.60;;;5.60;99.90;;;;;;4940326;29;20055;-85
2022/01/31 05:36:16;;;;;;;24.52;15.32;;;5.40;99.90;;;;;;4939465;29;20056;-86
2022/01/31 05:38:43;;;;;;;24.52;15.82;;;5.60;99.90;;;;;;4923667;29;20550;-86
2022/01/31 05:41:17;;;;;;;26.38;15.57;;;5.50;99.90;;;;;;4939878;28;20151;-86
2022/01/31 05:43:43;;;;;;;28.35;16.77;;;5.20;99.90;;;;;;4935966;29;20035;-86
2022/01/31 05:46:08;;;;;;;32.33;19.33;;;5.20;99.90;;;;;;4939393;29;20376;-85
2022/01/31 05:48:34;;;;;;;28.25;16.95;;;5.40;99.90;;;;;;4940207;29;20036;-90
2022/01/31 05:51:02;;;;;;;29.80;17.15;;;5.10;99.90;;;;;;4940217;29;20036;-90
2022/01/31 05:53:30;;;;;;;28.55;18.13;;;5.10;99.90;;;;;;4943499;29;20447;-90
2022/01/31 05:55:58;;;;;;;28.67;17.75;;;5.30;99.90;;;;;;4951246;29;20062;-91
2022/01/31 05:58:24;;;;;;;32.50;18.83;;;4.90;99.90;;;;;;4936537;29;20035;-90
2022/01/31 06:00:50;;;;;;;35.65;18.50;;;5.30;99.90;;;;;;4940873;29;20492;-91
2022/01/31 06:03:15;;;;;;;28.05;17.90;;;5.50;99.90;;;;;;4935779;29;20031;-91
2022/01/31 06:05:41;;;;;;;27.42;16.30;;;5.30;99.90;;;;;;4946180;29;20055;-90
2022/01/31 06:08:07;;;;;;;27.00;16.17;;;5.10;99.90;;;;;;4926121;29;20499;-91
2022/01/31 06:10:35;;;;;;;23.83;15.18;;;5.20;99.90;;;;;;4936066;29;20082;-90
2022/01/31 06:13:00;;;;;;;23.20;15.60;;;5.50;99.90;;;;;;4923383;29;20123;-90
2022/01/31 06:15:26;;;;;;;33.88;20.73;;;5.70;99.90;;;;;;4939539;29;20114;-90
2022/01/31 06:17:52;;;;;;;54.22;40.85;;;5.30;99.90;;;;;;4939639;29;20042;-90
2022/01/31 06:20:18;;;;;;;44.80;28.63;;;5.40;99.90;;;;;;4940328;29;20039;-91
2022/01/31 06:22:48;;;;;;;37.22;24.00;;;5.40;99.90;;;;;;4921241;29;20028;-90
2022/01/31 06:25:14;;;;;;;33.25;20.60;;;6.00;99.90;;;;;;4920935;29;20026;-90
2022/01/31 06:27:40;;;;;;;32.10;17.30;;;5.80;99.90;;;;;;4939755;29;20027;-91
2022/01/31 06:30:06;;;;;;;27.85;16.67;;;5.60;99.90;;;;;;4923122;29;20424;-90
2022/01/31 06:32:32;;;;;;;24.25;16.00;;;5.30;99.90;;;;;;4923689;29;20484;-90
2022/01/31 06:34:58;;;;;;;21.40;15.27;;;5.30;99.90;;;;;;4922813;29;20034;-90
2022/01/31 06:37:23;;;;;;;19.58;14.43;;;5.30;99.90;;;;;;4935519;29;20039;-91
2022/01/31 06:39:49;;;;;;;19.58;13.32;;;5.60;99.90;;;;;;4939723;29;20023;-91
2022/01/31 06:42:15;;;;;;;21.70;14.27;;;5.90;99.90;;;;;;4939302;29;20058;-91
2022/01/31 06:44:41;;;;;;;23.75;13.40;;;6.00;99.90;;;;;;4923403;29;20400;-90
2022/01/31 06:47:07;;;;;;;19.38;13.57;;;6.00;99.90;;;;;;4938268;29;20122;-91
2022/01/31 06:49:32;;;;;;;21.42;13.55;;;5.40;99.90;;;;;;4917790;29;20496;-90
2022/01/31 06:51:58;;;;;;;22.27;13.15;;;5.40;99.90;;;;;;4939218;29;20102;-90
2022/01/31 06:54:24;;;;;;;18.60;12.38;;;5.40;99.90;;;;;;4938311;29;20058;-90
2022/01/31 06:56:49;;;;;;;19.23;13.27;;;5.50;99.90;;;;;;4938876;29;20028;-90
2022/01/31 06:59:15;;;;;;;18.90;12.82;;;5.50;99.90;;;;;;4922010;29;20117;-90
2022/01/31 07:01:40;;;;;;;20.52;13.10;;;5.80;99.90;;;;;;4918520;29;20028;-91
2022/01/31 07:04:06;;;;;;;21.05;13.50;;;6.00;99.90;;;;;;4937910;29;20055;-90
2022/01/31 07:06:32;;;;;;;22.08;13.70;;;6.10;99.90;;;;;;4938689;29;20035;-90
2022/01/31 07:08:59;;;;;;;22.85;13.75;;;6.00;99.90;;;;;;4945015;29;20031;-88
2022/01/31 07:11:28;;;;;;;23.70;16.98;;;5.40;99.90;;;;;;4946635;29;20794;-87
2022/01/31 07:14:06;;;;;;;24.05;17.27;;;5.40;99.90;;;;;;4936106;29;20165;-90
2022/01/31 07:16:32;;;;;;;27.05;15.95;;;5.40;99.90;;;;;;4932830;29;20780;-91
2022/01/31 07:19:02;;;;;;;20.60;14.10;;;6.00;99.90;;;;;;4938547;29;20040;-91
2022/01/31 07:21:34;;;;;;;26.95;19.52;;;5.50;99.90;;;;;;4938673;29;20034;-91
2022/01/31 07:26:28;;;;;;;32.00;22.40;;;5.80;99.90;;;;;;4937979;29;20072;-90
2022/01/31 07:28:53;;;;;;;26.85;17.88;;;6.20;99.90;;;;;;4920644;29;20130;-90
2022/01/31 07:31:19;;;;;;;22.48;15.73;;;5.70;99.90;;;;;;4935629;29;20468;-90
2022/01/31 07:33:45;;;;;;;22.25;13.65;;;6.00;99.90;;;;;;4921257;29;20455;-91
2022/01/31 07:36:10;;;;;;;29.52;18.50;;;6.00;99.90;;;;;;4940968;29;20032;-90
2022/01/31 07:38:36;;;;;;;26.83;16.42;;;6.10;99.90;;;;;;4941124;29;20047;-91
2022/01/31 07:41:02;;;;;;;31.10;19.23;;;5.60;99.90;;;;;;4940951;29;20121;-90
2022/01/31 07:43:30;;;;;;;29.02;18.00;;;6.00;99.90;;;;;;4874560;29;1377847;-91
2022/01/31 07:45:57;;;;;;;34.10;19.65;;;5.50;99.90;;;;;;4943441;29;20039;-91
2022/01/31 07:48:25;;;;;;;35.60;18.58;;;5.90;99.90;;;;;;4942485;29;20028;-91
2022/01/31 07:50:52;;;;;;;32.67;18.50;;;5.80;99.90;;;;;;4942662;29;20114;-91
2022/01/31 07:53:17;;;;;;;32.97;19.08;;;5.60;99.90;;;;;;4942656;29;20027;-91
2022/01/31 07:55:43;;;;;;;32.97;19.40;;;6.10;99.90;;;;;;4923192;29;20034;-91
2022/01/31 07:58:09;;;;;;;29.25;19.67;;;5.70;99.90;;;;;;4940850;29;20071;-90
2022/01/31 08:00:36;;;;;;;28.85;18.83;;;5.80;99.90;;;;;;4942936;29;20036;-90
2022/01/31 08:03:02;;;;;;;33.60;18.92;;;5.40;99.90;;;;;;4928431;29;20031;-90
2022/01/31 08:05:27;;;;;;;34.03;19.90;;;5.60;99.90;;;;;;4942162;29;20174;-90
2022/01/31 08:07:53;;;;;;;29.60;19.63;;;6.00;99.90;;;;;;4924446;29;20134;-90
2022/01/31 08:10:19;;;;;;;30.95;19.25;;;5.20;99.90;;;;;;4939141;29;20062;-93
2022/01/31 08:12:45;;;;;;;30.25;18.77;;;5.90;99.90;;;;;;4943296;29;20404;-93
2022/01/31 08:15:19;;;;;;;30.65;18.88;;;5.40;99.90;;;;;;4937423;29;20030;-93
2022/01/31 08:17:45;;;;;;;29.30;18.25;;;5.50;99.90;;;;;;4931936;29;20038;-92
2022/01/31 08:20:11;;;;;;;29.00;18.70;;;6.20;99.90;;;;;;4930129;29;20019;-95
2022/01/31 08:22:37;;;;;;;33.53;19.38;;;5.80;99.90;;;;;;4940995;29;20032;-94
2022/01/31 08:25:03;;;;;;;30.27;18.05;;;5.90;99.90;;;;;;4953785;29;20037;-92
2022/01/31 08:27:28;;;;;;;27.73;17.80;;;5.80;99.90;;;;;;4924721;29;20557;-91
2022/01/31 08:30:05;;;;;;;27.52;19.15;;;6.50;99.90;;;;;;4942432;29;20059;-92
2022/01/31 08:32:43;;;;;;;24.00;16.23;;;6.40;99.90;;;;;;4942926;29;20067;-92
2022/01/31 08:37:53;;;;;;;29.95;17.42;;;6.60;99.90;;;;;;4939589;29;20049;-89
2022/01/31 08:40:19;;;;;;;24.17;15.85;;;6.20;99.90;;;;;;4939394;29;20106;-92
2022/01/31 08:42:45;;;;;;;21.77;14.80;;;6.70;99.90;;;;;;4924830;29;20484;-91
2022/01/31 08:45:11;;;;;;;26.52;15.10;;;6.80;99.90;;;;;;4941739;29;20032;-92
2022/01/31 08:47:41;;;;;;;24.00;13.95;;;6.40;99.90;;;;;;4941070;29;20432;-90
2022/01/31 08:50:10;;;;;;;19.00;12.75;;;6.80;99.90;;;;;;4940819;29;20098;-89
2022/01/31 08:52:36;;;;;;;20.02;13.80;;;6.60;99.90;;;;;;4922294;29;20039;-91
2022/01/31 08:55:01;;;;;;;19.48;13.13;;;6.60;99.90;;;;;;4948734;29;20028;-90
2022/01/31 08:57:27;;;;;;;17.30;12.73;;;6.80;99.90;;;;;;4924889;29;20086;-91
2022/01/31 08:59:54;;;;;;;18.27;12.13;;;7.00;99.90;;;;;;4926751;29;20467;-90
2022/01/31 09:02:27;;;;;;;17.23;12.43;;;6.50;99.90;;;;;;4940878;29;20053;-90
2022/01/31 09:04:52;;;;;;;19.52;12.75;;;6.50;99.90;;;;;;4923478;29;20043;-90
2022/01/31 09:07:20;;;;;;;19.85;12.90;;;6.50;99.90;;;;;;4922056;29;20032;-91
2022/01/31 09:09:53;;;;;;;21.65;12.80;;;6.70;99.90;;;;;;4939787;29;20028;-90
2022/01/31 09:12:26;;;;;;;23.98;13.75;;;7.40;99.90;;;;;;4930459;29;20031;-91
2022/01/31 09:14:52;;;;;;;20.02;13.57;;;7.00;99.90;;;;;;4945832;29;20074;-90
2022/01/31 09:17:18;;;;;;;22.13;13.63;;;7.00;99.90;;;;;;4940514;29;20039;-89
2022/01/31 09:19:43;;;;;;;19.88;13.20;;;7.40;99.90;;;;;;4937734;29;20043;-90
2022/01/31 09:22:09;;;;;;;17.10;12.73;;;7.00;99.90;;;;;;4939619;29;20027;-90
2022/01/31 09:24:38;;;;;;;20.23;11.95;;;7.30;99.90;;;;;;4940909;29;20031;-91
2022/01/31 09:27:05;;;;;;;16.23;11.52;;;6.90;99.90;;;;;;4940897;29;20023;-90
2022/01/31 09:29:30;;;;;;;18.52;12.55;;;7.10;99.90;;;;;;4943743;29;20045;-92
2022/01/31 09:31:56;;;;;;;18.35;12.63;;;7.20;99.90;;;;;;4952516;29;20563;-92
2022/01/31 09:34:23;;;;;;;19.92;12.18;;;7.80;99.90;;;;;;4938169;29;20118;-92
2022/01/31 09:36:49;;;;;;;17.83;11.95;;;7.90;99.90;;;;;;4941832;29;20098;-90
2022/01/31 09:39:14;;;;;;;15.63;11.35;;;7.70;99.90;;;;;;4939898;29;20067;-91
2022/01/31 09:41:43;;;;;;;17.45;11.50;;;7.50;99.90;;;;;;4939978;29;20128;-90
2022/01/31 09:44:36;;;;;;;16.67;11.50;;;7.20;99.90;;;;;;4940471;29;20510;-88
2022/01/31 09:49:31;;;;;;;18.02;11.73;;;6.90;99.90;;;;;;4935904;29;20042;-88
2022/01/31 09:51:57;;;;;;;20.55;11.13;;;7.40;99.90;;;;;;4940209;29;20469;-88
2022/01/31 09:54:25;;;;;;;15.05;11.13;;;7.70;99.90;;;;;;4923797;29;20032;-88
2022/01/31 09:56:53;;;;;;;15.48;10.20;;;7.70;99.90;;;;;;4939431;29;20020;-90
2022/01/31 09:59:19;;;;;;;10.95;8.60;;;7.20;99.90;;;;;;4939205;29;20043;-89
2022/01/31 10:01:52;;;;;;;11.98;8.32;;;7.40;99.90;;;;;;4921147;29;20020;-90
2022/01/31 10:04:20;;;;;;;12.88;8.85;;;7.70;99.90;;;;;;4938172;29;20048;-88
2022/01/31 10:06:49;;;;;;;14.43;8.85;;;7.80;99.90;;;;;;4940072;29;20035;-88
2022/01/31 10:09:20;;;;;;;16.55;10.73;;;7.90;99.90;;;;;;4923110;29;20500;-88
2022/01/31 10:11:56;;;;;;;12.75;9.52;;;7.70;99.90;;;;;;4944395;29;20035;-88
2022/01/31 10:17:42;;;;;;;14.13;10.38;;;7.40;99.90;;;;;;4940161;29;20097;-86
2022/01/31 10:20:08;;;;;;;14.13;10.20;;;7.40;99.90;;;;;;4939742;29;20043;-88
2022/01/31 10:22:35;;;;;;;13.88;9.68;;;7.50;99.90;;;;;;4934883;29;20062;-88
2022/01/31 10:25:06;;;;;;;14.07;9.85;;;7.60;99.90;;;;;;4939889;29;20118;-87
2022/01/31 10:27:34;;;;;;;13.48;9.48;;;7.60;99.90;;;;;;4938844;29;20047;-88
2022/01/31 10:30:18;;;;;;;12.07;9.25;;;7.60;99.90;;;;;;4939255;29;20067;-86
2022/01/31 10:32:47;;;;;;;10.75;8.88;;;7.80;99.90;;;;;;4938709;29;20067;-87
2022/01/31 10:35:22;;;;;;;12.80;8.80;;;7.80;99.90;;;;;;4939319;29;20122;-89
2022/01/31 10:37:53;;;;;;;14.25;8.95;;;7.90;99.90;;;;;;4937271;29;20036;-92
2022/01/31 10:56:52;;;;;;;7.57;6.80;;;8.30;99.90;;;;;;4939104;29;20027;-89
2022/01/31 10:59:19;;;;;;;11.88;7.43;;;8.40;99.90;;;;;;4939322;29;20035;-88
2022/01/31 11:01:50;;;;;;;9.55;7.00;;;8.30;99.90;;;;;;4935888;29;20043;-88
2022/01/31 11:04:16;;;;;;;8.82;7.07;;;8.70;99.90;;;;;;4937357;29;20039;-87
2022/01/31 11:06:43;;;;;;;7.82;6.80;;;8.90;99.90;;;;;;4939018;29;20031;-89
2022/01/31 11:09:12;;;;;;;10.75;7.78;;;9.10;99.90;;;;;;4939315;29;20032;-92
2022/01/31 11:11:40;;;;;;;9.30;7.68;;;9.70;99.90;;;;;;4939781;29;20393;-88
2022/01/31 11:14:07;;;;;;;9.77;7.40;;;9.80;99.90;;;;;;4938834;29;20027;-90
2022/01/31 11:16:34;;;;;;;12.20;7.80;;;9.20;99.90;;;;;;4935735;29;20032;-88
2022/01/31 11:19:06;;;;;;;11.77;7.63;;;9.10;99.90;;;;;;4940093;29;20126;-90
2022/01/31 11:21:38;;;;;;;9.95;7.03;;;9.10;99.90;;;;;;4940210;29;20036;-90
2022/01/31 11:24:16;;;;;;;8.88;6.90;;;8.70;99.90;;;;;;4939830;29;20032;-86
2022/01/31 11:26:46;;;;;;;10.88;7.93;;;8.60;99.90;;;;;;4939368;29;20024;-89
2022/01/31 11:29:12;;;;;;;8.18;7.38;;;8.60;99.90;;;;;;4923799;29;20511;-88
2022/01/31 11:31:39;;;;;;;11.30;8.35;;;8.70;99.90;;;;;;4935558;29;20028;-87
2022/01/31 11:34:07;;;;;;;9.07;6.82;;;8.60;99.90;;;;;;4939237;29;20028;-88
2022/01/31 11:36:34;;;;;;;8.25;7.22;;;9.00;99.90;;;;;;4938245;29;20035;-88
2022/01/31 11:39:02;;;;;;;10.73;7.78;;;8.40;99.90;;;;;;4924554;29;20063;-88
2022/01/31 11:41:28;;;;;;;9.75;7.43;;;8.90;99.90;;;;;;4938587;29;20035;-88
2022/01/31 11:44:24;;;;;;;12.45;7.70;;;9.10;99.90;;;;;;4936757;29;20416;-89
2022/01/31 11:46:50;;;;;;;9.82;7.88;;;8.30;99.90;;;;;;4922928;29;20155;-87
2022/01/31 11:49:18;;;;;;;11.07;8.13;;;8.60;99.90;;;;;;4936380;29;20020;-92
2022/01/31 11:51:50;;;;;;;9.65;7.43;;;8.70;99.90;;;;;;4939150;29;20485;-88
2022/01/31 11:54:22;;;;;;;8.35;7.25;;;8.90;99.90;;;;;;4922674;29;20520;-87
2022/01/31 11:56:51;;;;;;;10.15;7.35;;;9.10;99.90;;;;;;4924049;29;20617;-86
2022/01/31 11:59:23;;;;;;;10.23;7.13;;;9.00;99.90;;;;;;4938456;29;20035;-83
2022/01/31 12:01:52;;;;;;;13.20;7.95;;;8.30;99.90;;;;;;4919440;29;20028;-85
2022/01/31 12:04:31;;;;;;;9.88;7.47;;;8.20;99.90;;;;;;4950132;29;20023;-85
2022/01/31 12:06:56;;;;;;;9.60;7.85;;;8.00;99.90;;;;;;4937867;29;20035;-85
2022/01/31 12:09:26;;;;;;;11.13;7.72;;;8.10;99.90;;;;;;4920852;29;20035;-87
2022/01/31 12:11:53;;;;;;;9.70;7.97;;;8.70;99.90;;;;;;4938173;29;20028;-90
2022/01/31 12:14:26;;;;;;;9.55;7.78;;;7.90;99.90;;;;;;4938137;29;20066;-87
2022/01/31 12:17:14;;;;;;;10.95;8.52;;;7.80;99.90;;;;;;4920071;29;20489;-87
2022/01/31 12:22:10;;;;;;;10.63;9.13;;;7.70;99.90;;;;;;4940579;28;20627;-87
2022/01/31 12:24:42;;;;;;;18.35;15.93;;;8.00;99.90;;;;;;4941589;29;20569;-87
2022/01/31 12:27:28;;;;;;;14.60;12.10;;;7.80;99.90;;;;;;4941698;29;20387;-85
2022/01/31 12:29:57;;;;;;;12.65;9.70;;;7.80;99.90;;;;;;4941266;29;20031;-87
2022/01/31 12:32:24;;;;;;;14.05;10.05;;;7.80;99.90;;;;;;4929606;29;20023;-89
2022/01/31 12:34:53;;;;;;;11.38;10.02;;;7.90;99.90;;;;;;4952088;29;20114;-89
2022/01/31 12:37:35;;;;;;;15.60;10.05;;;8.00;99.90;;;;;;4922189;29;20039;-89
2022/01/31 12:40:15;;;;;;;13.40;9.85;;;8.10;99.90;;;;;;4924384;29;20508;-87
2022/01/31 12:45:30;;;;;;;15.05;9.80;;;8.10;99.90;;;;;;4941054;29;20039;-89
2022/01/31 12:48:20;;;;;;;11.73;9.38;;;7.90;99.90;;;;;;4940405;29;20114;-89
2022/01/31 12:50:48;;;;;;;12.60;9.88;;;8.20;99.90;;;;;;4941077;29;20131;-87
2022/01/31 12:53:23;;;;;;;10.18;9.05;;;8.70;99.90;;;;;;4925680;29;20024;-86
2022/01/31 12:56:07;;;;;;;10.68;8.90;;;9.50;99.90;;;;;;4938528;29;20088;-86
2022/01/31 12:58:34;;;;;;;11.52;8.73;;;10.00;99.90;;;;;;4937027;29;20036;-87
2022/01/31 13:01:21;;;;;;;11.95;8.65;;;9.90;99.90;;;;;;4941492;29;20028;-87
2022/01/31 13:04:09;;;;;;;11.23;8.50;;;9.40;99.90;;;;;;4931962;29;20039;-87
2022/01/31 13:06:41;;;;;;;9.15;8.07;;;9.20;99.90;;;;;;4933891;29;20046;-86
2022/01/31 13:09:11;;;;;;;10.88;8.73;;;8.90;99.90;;;;;;4925127;29;20038;-88
2022/01/31 13:11:39;;;;;;;8.73;7.82;;;9.00;99.90;;;;;;4940614;29;20389;-86
2022/01/31 13:14:18;;;;;;;9.27;8.18;;;9.20;99.90;;;;;;4940064;29;20082;-86